createdAt,value
2023-03-08T00:11:23.334Z,0.9
2023-03-08T00:26:32.476Z,0.8
2023-03-08T00:41:42.004Z,0.8
2023-03-08T00:56:51.360Z,0.7
2023-03-08T01:12:00.041Z,0.6
2023-03-08T01:27:09.669Z,0.6
2023-03-08T01:42:19.118Z,0.6
2023-03-08T01:57:29.187Z,0.6
2023-03-08T02:12:39.020Z,0.6
2023-03-08T02:27:48.690Z,0.6
2023-03-08T02:42:58.015Z,0.5
2023-03-08T02:58:07.697Z,0.5
2023-03-08T03:13:16.864Z,0.5
2023-03-08T03:28:26.575Z,0.5
2023-03-08T03:43:37.131Z,0.4
2023-03-08T03:58:45.628Z,0.3
2023-03-08T04:13:55.173Z,0.3
2023-03-08T04:29:03.561Z,0.2
2023-03-08T04:44:13.056Z,0.2
2023-03-08T04:59:23.117Z,0.3
2023-03-08T05:14:37.056Z,0.5
2023-03-08T05:29:47.276Z,0.5
2023-03-08T05:44:57.290Z,0.4
2023-03-08T06:00:07.219Z,0.4
2023-03-08T06:15:16.555Z,0.4
2023-03-08T06:30:26.698Z,0.4
2023-03-08T06:45:36.684Z,0.6
2023-03-08T07:00:45.924Z,0.8
2023-03-08T07:15:55.729Z,1
2023-03-08T07:31:05.813Z,1.1
2023-03-08T07:46:16.142Z,1.3
2023-03-08T08:01:25.961Z,1.4
2023-03-08T08:16:37.613Z,1.6
2023-03-08T08:31:48.216Z,1.8
2023-03-08T08:46:57.824Z,1.8
2023-03-08T09:02:07.883Z,2
2023-03-08T09:17:18.714Z,2.2
2023-03-08T09:32:28.555Z,2.3
2023-03-08T09:47:38.925Z,2.5
2023-03-08T10:02:49.297Z,2.6
2023-03-08T10:17:59.320Z,2.8
2023-03-08T10:33:09.512Z,3
2023-03-08T10:48:18.644Z,3.1
2023-03-08T11:03:28.805Z,3.2
2023-03-08T11:18:38.826Z,3.4
2023-03-08T11:33:48.682Z,3.6
2023-03-08T11:48:59.528Z,3.6
2023-03-08T12:04:09.146Z,3.7
2023-03-08T12:19:19.750Z,3.8
2023-03-08T12:34:29.526Z,3.8
2023-03-08T12:49:39.614Z,3.9
2023-03-08T13:04:49.956Z,3.8
2023-03-08T13:20:00.159Z,3.7
2023-03-08T13:35:10.608Z,3.5
2023-03-08T13:50:20.817Z,3.4
2023-03-08T14:05:30.173Z,3.3
2023-03-08T14:20:39.482Z,3.2
2023-03-08T14:35:49.602Z,3.1
2023-03-08T14:51:00.136Z,3.1
2023-03-08T15:06:10.146Z,3
2023-03-08T15:21:19.357Z,3.1
2023-03-08T15:36:29.090Z,3
2023-03-08T15:51:39.088Z,2.9
2023-03-08T16:06:48.967Z,2.8
2023-03-08T16:21:59.092Z,2.7
2023-03-08T16:37:08.560Z,2.6
2023-03-08T16:52:18.273Z,2.5
2023-03-08T17:07:27.963Z,2.4
2023-03-08T17:22:37.332Z,2.2
2023-03-08T17:37:47.032Z,2.2
2023-03-08T17:52:57.756Z,2
2023-03-08T18:08:07.134Z,2
2023-03-08T18:23:17.138Z,2
2023-03-08T18:38:26.633Z,2
2023-03-08T18:53:38.140Z,1.9
2023-03-08T19:08:47.557Z,1.8
2023-03-08T19:23:57.466Z,1.7
2023-03-08T19:39:07.022Z,1.7
2023-03-08T19:54:16.668Z,1.7
2023-03-08T20:09:25.662Z,1.7
2023-03-08T20:24:38.061Z,1.6
2023-03-08T20:39:46.452Z,1.6
2023-03-08T20:54:56.082Z,1.7
2023-03-08T21:10:05.641Z,1.7
2023-03-08T21:25:15.166Z,1.6
2023-03-08T21:40:24.516Z,1.6
2023-03-08T21:55:32.897Z,1.6
2023-03-08T22:10:42.582Z,1.6
2023-03-08T22:25:52.488Z,1.6
2023-03-08T22:41:02.045Z,1.6
2023-03-08T22:56:11.648Z,1.6
2023-03-08T23:11:20.861Z,1.6
2023-03-08T23:26:30.200Z,1.6
2023-03-08T23:41:39.924Z,1.6
2023-03-08T23:56:49.289Z,1.6
